createdAt,value
2023-04-18T00:00:06.113Z,9.00
2023-04-18T00:01:06.082Z,8.50
2023-04-18T00:02:06.122Z,8.20
2023-04-18T00:03:06.349Z,9.40
2023-04-18T00:04:06.188Z,8.70
2023-04-18T00:05:06.060Z,9.50
2023-04-18T00:06:06.017Z,10.60
2023-04-18T00:07:06.008Z,10.80
2023-04-18T00:08:05.981Z,8.90
2023-04-18T00:09:05.997Z,8.80
2023-04-18T00:10:05.970Z,10.20
2023-04-18T00:11:05.950Z,10.00
2023-04-18T00:12:05.932Z,9.30
2023-04-18T00:13:05.939Z,9.60
2023-04-18T00:14:05.927Z,9.90
2023-04-18T00:15:05.909Z,10.20
2023-04-18T00:16:05.890Z,9.70
2023-04-18T00:17:06.001Z,10.40
2023-04-18T00:18:06.105Z,10.90
2023-04-18T00:19:05.864Z,10.80
2023-04-18T00:20:05.846Z,9.80
2023-04-18T00:21:05.848Z,10.00
2023-04-18T00:22:05.831Z,9.30
2023-04-18T00:23:05.807Z,9.30
2023-04-18T00:24:05.802Z,10.30
2023-04-18T00:25:05.771Z,9.00
2023-04-18T00:26:05.772Z,9.60
2023-04-18T00:27:05.750Z,10.10
2023-04-18T00:28:05.741Z,10.00
2023-04-18T00:29:05.730Z,10.70
2023-04-18T00:30:05.748Z,10.30
2023-04-18T00:31:05.788Z,10.40
2023-04-18T00:32:05.683Z,9.90
2023-04-18T00:33:05.741Z,11.10
2023-04-18T00:34:05.675Z,9.90
2023-04-18T00:35:05.647Z,10.20
2023-04-18T00:36:05.646Z,9.30
2023-04-18T00:37:05.629Z,10.20
2023-04-18T00:38:05.618Z,10.10
2023-04-18T00:39:05.639Z,9.70
2023-04-18T00:40:05.648Z,10.20
2023-04-18T00:41:05.582Z,10.40
2023-04-18T00:42:05.560Z,9.40
2023-04-18T00:43:05.557Z,9.50
2023-04-18T00:44:05.536Z,10.10
2023-04-18T00:45:05.563Z,9.60
2023-04-18T00:46:05.584Z,10.00
2023-04-18T00:47:05.511Z,10.20
2023-04-18T00:48:05.560Z,9.70
2023-04-18T00:49:05.494Z,12.10
2023-04-18T00:50:05.482Z,10.30
2023-04-18T00:51:05.476Z,10.00
2023-04-18T00:52:05.438Z,10.90
2023-04-18T00:53:05.449Z,11.70
2023-04-18T00:54:05.423Z,9.70
2023-04-18T00:55:05.423Z,10.80
2023-04-18T00:56:05.388Z,10.90
2023-04-18T00:57:05.384Z,10.60
2023-04-18T00:58:05.386Z,10.40
2023-04-18T00:59:05.344Z,10.10
2023-04-18T01:00:05.336Z,11.10
2023-04-18T01:01:05.365Z,10.30
2023-04-18T01:02:05.425Z,9.90
2023-04-18T01:03:05.396Z,10.30
2023-04-18T01:04:05.356Z,9.90
2023-04-18T01:05:05.304Z,11.10
2023-04-18T01:06:05.276Z,10.00
2023-04-18T01:07:05.252Z,11.10
2023-04-18T01:08:05.245Z,10.50
2023-04-18T01:09:05.254Z,11.50
2023-04-18T01:10:05.210Z,9.90
2023-04-18T01:11:05.231Z,10.80
2023-04-18T01:12:05.181Z,11.90
2023-04-18T01:13:05.176Z,11.40
2023-04-18T01:14:05.174Z,10.30
2023-04-18T01:15:05.165Z,10.30
2023-04-18T01:16:05.254Z,9.90
2023-04-18T01:17:05.136Z,11.90
2023-04-18T01:18:05.126Z,10.80
2023-04-18T01:19:05.113Z,10.70
2023-04-18T01:20:05.098Z,11.20
2023-04-18T01:21:05.088Z,10.50
2023-04-18T01:22:05.064Z,10.40
2023-04-18T01:23:05.061Z,11.30
2023-04-18T01:24:05.033Z,13.30
2023-04-18T01:25:05.035Z,11.10
2023-04-18T01:26:05.022Z,11.50
2023-04-18T01:27:05.001Z,11.30
2023-04-18T01:28:04.991Z,11.50
2023-04-18T01:29:04.983Z,10.40
2023-04-18T01:30:04.965Z,11.70
2023-04-18T01:31:05.035Z,11.70
2023-04-18T01:32:04.946Z,10.40
2023-04-18T01:33:04.965Z,11.00
2023-04-18T01:34:04.945Z,11.40
2023-04-18T01:35:04.910Z,12.60
2023-04-18T01:36:04.913Z,12.30
2023-04-18T01:37:04.888Z,10.60
2023-04-18T01:38:04.874Z,10.70
2023-04-18T01:39:04.860Z,12.40
2023-04-18T01:40:04.834Z,11.10
2023-04-18T01:41:04.827Z,12.20
2023-04-18T01:42:04.825Z,12.00
2023-04-18T01:43:04.817Z,10.90
2023-04-18T01:44:04.796Z,12.90
2023-04-18T01:45:04.792Z,13.00
2023-04-18T01:46:04.765Z,13.00
2023-04-18T01:47:04.775Z,11.60
2023-04-18T01:48:04.745Z,12.30
2023-04-18T01:49:04.727Z,12.50
2023-04-18T01:50:04.720Z,11.70
2023-04-18T01:51:04.719Z,11.20
2023-04-18T01:52:04.698Z,12.20
2023-04-18T01:53:04.698Z,12.00
2023-04-18T01:54:04.662Z,12.60
2023-04-18T01:55:04.663Z,12.80
2023-04-18T01:56:04.668Z,14.40
2023-04-18T01:57:04.634Z,15.30
2023-04-18T01:58:04.617Z,11.50
2023-04-18T01:59:04.636Z,13.40
2023-04-18T02:00:04.600Z,13.50
2023-04-18T02:01:04.730Z,13.40
2023-04-18T02:02:04.670Z,13.90
2023-04-18T02:03:04.648Z,13.90
2023-04-18T02:04:04.558Z,12.80
2023-04-18T02:05:04.529Z,13.40
2023-04-18T02:06:04.514Z,27.00
2023-04-18T02:07:04.517Z,33.20
2023-04-18T02:08:04.507Z,21.40
2023-04-18T02:09:04.487Z,16.50
2023-04-18T02:10:04.467Z,15.70
2023-04-18T02:11:04.462Z,13.40
2023-04-18T02:12:04.431Z,13.70
2023-04-18T02:13:04.452Z,13.10
2023-04-18T02:14:04.424Z,14.00
2023-04-18T02:15:04.472Z,14.30
2023-04-18T02:16:04.421Z,13.80
2023-04-18T02:17:04.379Z,15.40
2023-04-18T02:18:04.370Z,16.00
2023-04-18T02:19:04.368Z,14.00
2023-04-18T02:20:04.348Z,15.30
2023-04-18T02:21:04.336Z,14.50
2023-04-18T02:22:04.333Z,14.30
2023-04-18T02:23:04.344Z,14.40
2023-04-18T02:24:04.316Z,15.00
2023-04-18T02:25:04.299Z,15.60
2023-04-18T02:26:04.277Z,15.80
2023-04-18T02:27:04.277Z,14.10
2023-04-18T02:28:04.261Z,14.50
2023-04-18T02:29:04.233Z,14.40
2023-04-18T02:30:04.245Z,15.80
2023-04-18T02:31:04.207Z,14.40
2023-04-18T02:32:04.354Z,15.20
2023-04-18T02:33:04.285Z,14.30
2023-04-18T02:34:04.152Z,13.60
2023-04-18T02:35:04.145Z,14.80
2023-04-18T02:36:04.137Z,13.70
2023-04-18T02:37:04.169Z,16.40
2023-04-18T02:38:04.109Z,15.10
2023-04-18T02:39:04.112Z,14.20
2023-04-18T02:40:04.112Z,15.10
2023-04-18T02:41:04.077Z,13.60
2023-04-18T02:42:04.069Z,15.40
2023-04-18T02:43:04.053Z,14.00
2023-04-18T02:44:04.057Z,14.50
2023-04-18T02:45:04.053Z,15.70
2023-04-18T02:46:04.029Z,14.50
2023-04-18T02:47:03.994Z,14.70
2023-04-18T02:48:03.997Z,14.90
2023-04-18T02:49:03.987Z,15.80
2023-04-18T02:50:03.958Z,15.30
2023-04-18T02:51:03.941Z,14.20
2023-04-18T02:52:03.955Z,15.00
2023-04-18T02:53:03.926Z,14.40
2023-04-18T02:54:03.920Z,16.40
2023-04-18T02:55:03.910Z,25.00
2023-04-18T02:56:03.889Z,29.60
2023-04-18T02:57:03.864Z,28.00
2023-04-18T02:58:03.854Z,24.10
2023-04-18T02:59:03.870Z,22.60
2023-04-18T03:00:03.831Z,19.90
2023-04-18T03:01:03.851Z,16.50
2023-04-18T03:02:03.844Z,17.20
2023-04-18T03:03:03.874Z,16.30
2023-04-18T03:04:03.834Z,15.60
2023-04-18T03:05:03.893Z,17.20
2023-04-18T03:06:03.766Z,16.70
2023-04-18T03:07:03.763Z,18.90
2023-04-18T03:08:03.736Z,16.70
2023-04-18T03:09:03.734Z,16.80
2023-04-18T03:10:03.727Z,16.60
2023-04-18T03:11:03.691Z,17.10
2023-04-18T03:12:03.682Z,16.20
2023-04-18T03:13:03.675Z,18.60
2023-04-18T03:14:03.680Z,16.30
2023-04-18T03:15:03.651Z,17.30
2023-04-18T03:16:03.751Z,17.10
2023-04-18T03:17:03.639Z,18.90
2023-04-18T03:18:03.679Z,17.30
2023-04-18T03:19:03.618Z,18.00
2023-04-18T03:20:03.614Z,18.90
2023-04-18T03:21:03.580Z,18.10
2023-04-18T03:22:03.579Z,19.70
2023-04-18T03:23:03.579Z,18.30
2023-04-18T03:24:03.554Z,18.40
2023-04-18T03:25:03.569Z,18.00
2023-04-18T03:26:03.532Z,18.10
2023-04-18T03:27:03.520Z,19.50
2023-04-18T03:28:03.485Z,20.80
2023-04-18T03:29:03.476Z,19.30
2023-04-18T03:30:03.478Z,20.30
2023-04-18T03:31:03.475Z,18.20
2023-04-18T03:32:03.440Z,19.50
2023-04-18T03:33:03.509Z,19.60
2023-04-18T03:34:03.418Z,18.50
2023-04-18T03:35:03.389Z,21.50
2023-04-18T03:36:03.400Z,19.40
2023-04-18T03:37:03.404Z,20.80
2023-04-18T03:38:03.372Z,18.60
2023-04-18T03:39:03.353Z,21.50
2023-04-18T03:40:03.345Z,21.20
2023-04-18T03:41:03.346Z,21.10
2023-04-18T03:42:03.332Z,20.80
2023-04-18T03:43:03.297Z,21.30
2023-04-18T03:44:03.288Z,21.70
2023-04-18T03:45:03.276Z,21.10
2023-04-18T03:46:03.324Z,20.40
2023-04-18T03:47:03.236Z,20.70
2023-04-18T03:48:03.312Z,22.20
2023-04-18T03:49:03.229Z,20.10
2023-04-18T03:50:03.247Z,21.40
2023-04-18T03:51:03.217Z,21.00
2023-04-18T03:52:03.196Z,21.80
2023-04-18T03:53:03.206Z,21.60
2023-04-18T03:54:03.173Z,22.30
2023-04-18T03:55:03.170Z,21.80
2023-04-18T03:56:03.170Z,21.20
2023-04-18T03:57:03.128Z,22.10
2023-04-18T03:58:03.117Z,21.10
2023-04-18T03:59:03.103Z,20.80
2023-04-18T04:00:03.108Z,23.30
2023-04-18T04:01:03.086Z,22.60
2023-04-18T04:02:03.102Z,22.60
2023-04-18T04:03:03.162Z,22.10
2023-04-18T04:04:03.137Z,21.80
2023-04-18T04:05:03.132Z,25.90
2023-04-18T04:06:03.022Z,36.80
2023-04-18T04:07:03.033Z,31.30
2023-04-18T04:08:03.005Z,36.20
2023-04-18T04:09:03.001Z,26.80
2023-04-18T04:10:03.000Z,24.70
2023-04-18T04:11:02.965Z,23.80
2023-04-18T04:12:02.990Z,23.50
2023-04-18T04:13:02.970Z,22.50
2023-04-18T04:14:02.951Z,21.30
2023-04-18T04:15:02.914Z,22.20
2023-04-18T04:16:02.930Z,21.20
2023-04-18T04:17:02.881Z,21.70
2023-04-18T04:18:02.956Z,25.10
2023-04-18T04:19:02.865Z,23.30
2023-04-18T04:20:02.851Z,20.90
2023-04-18T04:21:02.843Z,20.70
2023-04-18T04:22:02.834Z,23.00
2023-04-18T04:23:02.826Z,22.60
2023-04-18T04:24:02.805Z,21.30
2023-04-18T04:25:02.797Z,21.30
2023-04-18T04:26:02.763Z,21.20
2023-04-18T04:27:02.763Z,22.40
2023-04-18T04:28:02.745Z,24.30
2023-04-18T04:29:02.728Z,24.40
2023-04-18T04:30:02.717Z,24.50
2023-04-18T04:31:02.692Z,24.50
2023-04-18T04:32:02.707Z,23.30
2023-04-18T04:33:02.752Z,23.60
2023-04-18T04:34:02.698Z,22.50
2023-04-18T04:35:02.670Z,22.10
2023-04-18T04:36:02.666Z,23.30
2023-04-18T04:37:02.640Z,22.50
2023-04-18T04:38:02.649Z,24.60
2023-04-18T04:39:02.617Z,24.30
2023-04-18T04:40:02.598Z,24.50
2023-04-18T04:41:02.570Z,23.70
2023-04-18T04:42:02.590Z,26.80
2023-04-18T04:43:02.585Z,22.50
2023-04-18T04:44:02.548Z,24.30
2023-04-18T04:45:02.585Z,23.10
2023-04-18T04:46:02.557Z,27.00
2023-04-18T04:47:02.488Z,23.40
2023-04-18T04:48:02.519Z,24.00
2023-04-18T04:49:02.527Z,23.30
2023-04-18T04:50:02.477Z,24.70
2023-04-18T04:51:02.470Z,24.40
2023-04-18T04:52:02.452Z,23.20
2023-04-18T04:53:02.418Z,24.50
2023-04-18T04:54:02.428Z,25.40
2023-04-18T04:55:02.412Z,23.90
2023-04-18T04:56:02.375Z,29.70
2023-04-18T04:57:02.375Z,30.20
2023-04-18T04:58:02.357Z,35.30
2023-04-18T04:59:02.369Z,35.50
2023-04-18T05:00:02.398Z,36.70
2023-04-18T05:01:02.373Z,31.50
2023-04-18T05:02:02.429Z,30.30
2023-04-18T05:03:02.560Z,28.90
2023-04-18T05:04:02.436Z,26.30
2023-04-18T05:05:02.309Z,27.90
2023-04-18T05:06:02.265Z,24.60
2023-04-18T05:07:02.237Z,28.70
2023-04-18T05:08:02.265Z,26.30
2023-04-18T05:09:02.215Z,24.90
2023-04-18T05:10:02.215Z,23.80
2023-04-18T05:11:02.179Z,25.40
2023-04-18T05:12:02.208Z,26.20
2023-04-18T05:13:02.153Z,25.40
2023-04-18T05:14:02.193Z,26.70
2023-04-18T05:15:02.150Z,25.60
2023-04-18T05:16:02.117Z,26.10
2023-04-18T05:17:02.275Z,25.80
2023-04-18T05:18:02.203Z,24.20
2023-04-18T05:19:02.115Z,28.10
2023-04-18T05:20:02.124Z,29.10
2023-04-18T05:21:02.079Z,26.70
2023-04-18T05:22:02.049Z,27.70
2023-04-18T05:23:02.062Z,28.20
2023-04-18T05:24:02.041Z,25.20
2023-04-18T05:25:02.029Z,25.30
2023-04-18T05:26:01.991Z,29.30
2023-04-18T05:27:01.998Z,25.60
2023-04-18T05:28:01.975Z,28.20
2023-04-18T05:29:02.079Z,23.70
2023-04-18T05:30:01.957Z,24.50
2023-04-18T05:31:02.031Z,25.20
2023-04-18T05:32:01.932Z,24.80
2023-04-18T05:33:01.954Z,24.20
2023-04-18T05:34:01.913Z,24.00
2023-04-18T05:35:01.928Z,28.20
2023-04-18T05:36:01.872Z,24.10
2023-04-18T05:37:01.862Z,27.40
2023-04-18T05:38:01.881Z,23.80
2023-04-18T05:39:01.826Z,22.90
2023-04-18T05:40:01.886Z,24.40
2023-04-18T05:41:01.845Z,24.00
2023-04-18T05:42:01.801Z,22.40
2023-04-18T05:43:01.779Z,24.90
2023-04-18T05:44:17.134Z,27.90
2023-04-18T05:45:01.777Z,22.90
2023-04-18T05:46:01.811Z,24.90
2023-04-18T05:47:01.728Z,24.50
2023-04-18T05:48:01.910Z,24.70
2023-04-18T05:49:01.763Z,24.50
2023-04-18T05:50:01.727Z,24.40
2023-04-18T05:51:01.707Z,21.90
2023-04-18T05:52:01.696Z,23.50
2023-04-18T05:53:01.656Z,23.00
2023-04-18T05:54:01.662Z,24.10
2023-04-18T05:55:01.778Z,23.50
2023-04-18T05:56:01.616Z,23.50
2023-04-18T05:57:03.810Z,23.60
2023-04-18T05:58:01.590Z,24.70
2023-04-18T05:59:01.570Z,23.20
2023-04-18T06:00:01.791Z,24.40
2023-04-18T06:01:01.568Z,22.70
2023-04-18T06:02:01.613Z,23.50
2023-04-18T06:03:01.770Z,24.60
2023-04-18T06:04:01.653Z,26.30
2023-04-18T06:05:01.733Z,28.70
2023-04-18T06:06:01.540Z,24.40
2023-04-18T06:07:01.503Z,24.60
2023-04-18T06:08:01.506Z,27.80
2023-04-18T06:09:01.488Z,25.20
2023-04-18T06:10:01.459Z,25.70
2023-04-18T06:11:01.441Z,25.40
2023-04-18T06:12:01.423Z,28.00
2023-04-18T06:13:01.396Z,23.70
2023-04-18T06:14:01.440Z,23.70
2023-04-18T06:15:01.364Z,27.40
2023-04-18T06:16:01.415Z,23.10
2023-04-18T06:17:01.368Z,23.60
2023-04-18T06:18:01.407Z,24.70
2023-04-18T06:19:01.512Z,22.40
2023-04-18T06:20:01.363Z,23.60
2023-04-18T06:21:01.321Z,24.70
2023-04-18T06:22:01.285Z,21.00
2023-04-18T06:23:01.313Z,21.90
2023-04-18T06:24:01.268Z,22.40
2023-04-18T06:25:01.255Z,22.60
2023-04-18T06:26:01.283Z,22.80
2023-04-18T06:27:01.241Z,22.10
2023-04-18T06:28:01.217Z,21.40
2023-04-18T06:29:01.194Z,22.20
2023-04-18T06:30:01.211Z,23.70
2023-04-18T06:31:01.177Z,22.50
2023-04-18T06:32:01.227Z,22.50
2023-04-18T06:33:01.207Z,24.40
2023-04-18T06:34:01.150Z,22.70
2023-04-18T06:35:01.151Z,24.20
2023-04-18T06:36:01.119Z,22.60
2023-04-18T06:37:01.124Z,23.30
2023-04-18T06:38:01.084Z,24.70
2023-04-18T06:39:01.090Z,23.90
2023-04-18T06:40:01.060Z,23.20
2023-04-18T06:41:01.067Z,22.80
2023-04-18T06:42:01.033Z,23.80
2023-04-18T06:43:01.015Z,22.10
2023-04-18T06:44:04.004Z,23.90
2023-04-18T06:45:01.025Z,21.60
2023-04-18T06:46:00.998Z,21.30
2023-04-18T06:47:00.965Z,20.70
2023-04-18T06:48:01.007Z,22.60
2023-04-18T06:49:00.959Z,23.20
2023-04-18T06:50:00.930Z,19.40
2023-04-18T06:51:00.940Z,22.90
2023-04-18T06:52:00.901Z,22.30
2023-04-18T06:53:00.888Z,22.30
2023-04-18T06:54:01.580Z,23.60
2023-04-18T06:55:00.864Z,21.90
2023-04-18T06:56:00.880Z,25.10
2023-04-18T06:57:00.861Z,22.40
2023-04-18T06:58:00.833Z,21.40
2023-04-18T06:59:00.837Z,21.90
2023-04-18T07:00:00.832Z,21.70
2023-04-18T07:01:00.825Z,22.90
2023-04-18T07:02:00.810Z,31.60
2023-04-18T07:03:01.043Z,29.10
2023-04-18T07:04:00.828Z,38.80
2023-04-18T07:05:00.752Z,28.90
2023-04-18T07:06:00.777Z,27.90
2023-04-18T07:07:00.791Z,25.70
2023-04-18T07:08:00.703Z,23.50
2023-04-18T07:09:00.694Z,20.20
2023-04-18T07:10:00.669Z,22.00
2023-04-18T07:11:00.729Z,19.90
2023-04-18T07:12:00.670Z,22.30
2023-04-18T07:13:00.647Z,20.80
2023-04-18T07:14:00.647Z,23.70
2023-04-18T07:15:00.612Z,21.00
2023-04-18T07:16:00.607Z,21.30
2023-04-18T07:17:00.672Z,21.20
2023-04-18T07:18:00.635Z,20.30
2023-04-18T07:19:00.601Z,20.70
2023-04-18T07:20:00.551Z,19.50
2023-04-18T07:21:00.545Z,21.20
2023-04-18T07:22:00.542Z,21.30
2023-04-18T07:23:00.543Z,18.90
2023-04-18T07:24:00.525Z,29.30
2023-04-18T07:25:00.514Z,30.20
2023-04-18T07:26:00.522Z,25.90
2023-04-18T07:27:00.485Z,20.60
2023-04-18T07:28:00.492Z,19.20
2023-04-18T07:29:00.476Z,21.20
2023-04-18T07:30:00.433Z,20.00
2023-04-18T07:31:00.452Z,20.80
2023-04-18T07:32:00.426Z,17.20
2023-04-18T07:33:00.443Z,19.60
2023-04-18T07:34:00.382Z,17.60
2023-04-18T07:35:00.394Z,16.50
2023-04-18T07:36:00.365Z,18.30
2023-04-18T07:37:00.373Z,19.10
2023-04-18T07:38:00.345Z,16.20
2023-04-18T07:39:00.346Z,19.50
2023-04-18T07:40:00.301Z,19.20
2023-04-18T07:41:00.312Z,16.00
2023-04-18T07:42:00.286Z,18.40
2023-04-18T07:43:00.294Z,18.40
2023-04-18T07:44:00.258Z,18.90
2023-04-18T07:45:00.259Z,18.20
2023-04-18T07:46:00.278Z,15.80
2023-04-18T07:47:00.215Z,18.10
2023-04-18T07:48:00.259Z,17.10
2023-04-18T07:49:00.223Z,18.20
2023-04-18T07:50:00.218Z,15.10
2023-04-18T07:51:00.182Z,13.90
2023-04-18T07:52:00.169Z,15.70
2023-04-18T07:53:00.163Z,14.10
2023-04-18T07:54:00.153Z,15.50
2023-04-18T07:55:00.127Z,15.50
2023-04-18T07:56:00.154Z,13.40
2023-04-18T07:57:00.163Z,15.90
2023-04-18T07:58:00.131Z,14.50
2023-04-18T07:59:00.129Z,14.00
2023-04-18T08:00:00.112Z,14.10
2023-04-18T08:01:00.058Z,14.60
2023-04-18T08:02:00.132Z,14.00
2023-04-18T08:03:00.168Z,15.80
2023-04-18T08:04:00.151Z,13.50
2023-04-18T08:05:00.111Z,13.50
2023-04-18T08:06:00.007Z,15.90
2023-04-18T08:07:00.049Z,14.30
2023-04-18T08:07:59.976Z,12.60
2023-04-18T08:08:59.971Z,13.40
2023-04-18T08:09:59.952Z,11.80
2023-04-18T08:10:59.991Z,14.00
2023-04-18T08:11:59.952Z,13.90
2023-04-18T08:12:59.914Z,13.10
2023-04-18T08:13:59.932Z,13.00
2023-04-18T08:14:59.875Z,12.50
2023-04-18T08:16:00.003Z,14.20
2023-04-18T08:16:59.910Z,13.60
2023-04-18T08:17:59.908Z,11.80
2023-04-18T08:18:59.864Z,13.50
2023-04-18T08:19:59.818Z,14.10
2023-04-18T08:20:59.833Z,13.20
2023-04-18T08:21:59.805Z,15.00
2023-04-18T08:23:06.110Z,17.70
2023-04-18T08:23:59.826Z,20.40
2023-04-18T08:25:04.931Z,17.30
2023-04-18T08:25:59.756Z,13.80
2023-04-18T08:26:59.874Z,14.40
2023-04-18T08:27:59.767Z,13.00
2023-04-18T08:28:59.740Z,13.50
2023-04-18T08:29:59.730Z,15.00
2023-04-18T08:30:59.724Z,14.40
2023-04-18T08:31:59.767Z,16.20
2023-04-18T08:32:59.752Z,13.70
2023-04-18T08:33:59.699Z,13.20
2023-04-18T08:34:59.653Z,15.20
2023-04-18T08:35:59.648Z,14.90
2023-04-18T08:36:59.659Z,13.10
2023-04-18T08:37:59.644Z,13.80
2023-04-18T08:38:59.631Z,13.60
2023-04-18T08:39:59.596Z,15.30
2023-04-18T08:40:59.590Z,14.20
2023-04-18T08:41:59.626Z,14.80
2023-04-18T08:42:59.565Z,13.80
2023-04-18T08:43:59.537Z,14.00
2023-04-18T08:44:59.575Z,14.70
2023-04-18T08:45:59.646Z,12.70
2023-04-18T08:46:59.541Z,13.60
2023-04-18T08:47:59.616Z,13.70
2023-04-18T08:48:59.543Z,14.10
2023-04-18T08:49:59.501Z,14.70
2023-04-18T08:50:59.468Z,13.90
2023-04-18T08:51:59.446Z,14.50
2023-04-18T08:52:59.442Z,16.20
2023-04-18T08:53:59.415Z,15.30
2023-04-18T08:54:59.423Z,14.20
2023-04-18T08:55:59.429Z,14.60
2023-04-18T08:56:59.397Z,16.90
2023-04-18T08:57:59.386Z,15.20
2023-04-18T08:58:59.362Z,16.90
2023-04-18T08:59:59.372Z,16.30
2023-04-18T09:00:59.393Z,15.60
2023-04-18T09:01:59.448Z,14.80
2023-04-18T09:02:59.411Z,16.90
2023-04-18T09:03:59.361Z,15.70
2023-04-18T09:04:59.307Z,16.20
2023-04-18T09:05:59.310Z,15.80
2023-04-18T09:06:59.278Z,16.50
2023-04-18T09:07:59.247Z,16.50
2023-04-18T09:08:59.409Z,14.50
2023-04-18T09:09:59.233Z,15.30
2023-04-18T09:10:59.238Z,16.30
2023-04-18T09:11:59.235Z,21.70
2023-04-18T09:12:59.222Z,18.80
2023-04-18T09:13:59.348Z,15.90
2023-04-18T09:14:59.229Z,16.40
2023-04-18T09:15:59.165Z,17.80
2023-04-18T09:16:59.198Z,20.30
2023-04-18T09:17:59.193Z,21.80
2023-04-18T09:18:59.120Z,16.30
2023-04-18T09:19:59.099Z,14.90
2023-04-18T09:20:59.133Z,15.30
2023-04-18T09:21:59.098Z,17.90
2023-04-18T09:22:59.077Z,15.80
2023-04-18T09:23:59.066Z,15.80
2023-04-18T09:24:59.168Z,15.80
2023-04-18T09:25:59.032Z,18.40
2023-04-18T09:26:59.054Z,18.00
2023-04-18T09:27:59.023Z,17.00
2023-04-18T09:28:59.000Z,18.30
2023-04-18T09:29:58.990Z,18.10
2023-04-18T09:30:59.041Z,18.40
2023-04-18T09:31:58.968Z,20.60
2023-04-18T09:32:59.202Z,17.60
2023-04-18T09:33:58.940Z,17.40
2023-04-18T09:34:58.935Z,17.50
2023-04-18T09:35:58.907Z,16.40
2023-04-18T09:37:07.039Z,16.10
2023-04-18T09:38:00.377Z,17.00
2023-04-18T09:38:59.508Z,14.60
2023-04-18T09:40:00.644Z,15.70
2023-04-18T09:40:58.874Z,14.20
2023-04-18T09:41:58.853Z,14.20
2023-04-18T09:42:58.828Z,14.00
2023-04-18T09:43:59.000Z,13.80
2023-04-18T09:44:58.801Z,17.50
2023-04-18T09:45:58.855Z,14.30
2023-04-18T09:46:58.808Z,14.70
2023-04-18T09:47:58.827Z,13.00
2023-04-18T09:48:58.788Z,13.20
2023-04-18T09:49:58.728Z,15.60
2023-04-18T09:50:58.715Z,14.00
2023-04-18T09:51:58.702Z,14.40
2023-04-18T09:52:58.708Z,14.40
2023-04-18T09:53:58.735Z,14.70
2023-04-18T09:54:58.690Z,13.40
2023-04-18T09:55:58.662Z,13.40
2023-04-18T09:56:58.646Z,12.50
2023-04-18T09:57:58.645Z,14.00
2023-04-18T09:58:58.637Z,14.60
2023-04-18T09:59:58.642Z,13.60
2023-04-18T10:00:58.638Z,17.20
2023-04-18T10:01:58.661Z,13.20
2023-04-18T10:02:58.685Z,12.20
2023-04-18T10:03:59.898Z,12.50
2023-04-18T10:04:58.638Z,13.90
2023-04-18T10:05:58.528Z,14.30
2023-04-18T10:06:58.544Z,13.40
2023-04-18T10:07:58.570Z,15.60
2023-04-18T10:08:58.495Z,16.30
2023-04-18T10:09:58.507Z,13.00
2023-04-18T10:10:58.518Z,14.50
2023-04-18T10:11:58.444Z,13.50
2023-04-18T10:12:58.460Z,13.90
2023-04-18T10:13:58.427Z,13.90
2023-04-18T10:14:59.270Z,17.10
2023-04-18T10:15:58.409Z,17.80
2023-04-18T10:16:58.383Z,17.40
2023-04-18T10:18:04.409Z,17.90
2023-04-18T10:18:58.381Z,16.30
2023-04-18T10:19:58.350Z,13.00
2023-04-18T10:20:58.400Z,13.30
2023-04-18T10:21:58.411Z,13.70
2023-04-18T10:22:58.330Z,13.60
2023-04-18T10:23:58.394Z,12.70
2023-04-18T10:24:58.336Z,13.90
2023-04-18T10:25:58.345Z,12.90
2023-04-18T10:26:58.957Z,14.90
2023-04-18T10:27:58.274Z,15.70
2023-04-18T10:28:59.785Z,14.20
2023-04-18T10:29:58.252Z,14.30
2023-04-18T10:30:58.338Z,14.70
2023-04-18T10:31:58.276Z,14.50
2023-04-18T10:32:58.280Z,14.30
2023-04-18T10:34:58.252Z,15.70
2023-04-18T10:35:58.189Z,14.40
2023-04-18T10:36:58.170Z,13.50
2023-04-18T10:37:58.152Z,14.30
2023-04-18T10:38:58.138Z,16.60
2023-04-18T10:39:58.159Z,13.30
2023-04-18T10:40:58.121Z,14.00
2023-04-18T10:41:58.784Z,15.10
2023-04-18T10:42:58.099Z,15.70
2023-04-18T10:43:58.089Z,13.40
2023-04-18T10:44:58.058Z,15.00
2023-04-18T10:45:58.041Z,13.30
2023-04-18T10:46:58.133Z,15.30
2023-04-18T10:47:58.114Z,14.40
2023-04-18T10:48:58.010Z,14.70
2023-04-18T10:49:58.077Z,13.60
2023-04-18T10:50:57.990Z,14.00
2023-04-18T10:51:57.998Z,13.30
2023-04-18T10:52:58.045Z,13.30
2023-04-18T10:53:57.956Z,18.40
2023-04-18T10:54:59.102Z,13.80
2023-04-18T10:55:57.959Z,13.30
2023-04-18T10:56:57.928Z,11.70
2023-04-18T10:57:57.900Z,12.60
2023-04-18T10:58:57.903Z,13.50
2023-04-18T10:59:57.872Z,12.40
2023-04-18T11:00:57.893Z,11.80
2023-04-18T11:01:57.881Z,13.20
2023-04-18T11:02:58.095Z,13.20
2023-04-18T11:03:57.904Z,16.10
2023-04-18T11:04:57.844Z,13.10
2023-04-18T11:05:57.795Z,12.30
2023-04-18T11:06:57.816Z,13.60
2023-04-18T11:07:59.818Z,14.00
2023-04-18T11:08:58.217Z,12.10
2023-04-18T11:09:57.765Z,12.40
2023-04-18T11:10:57.735Z,13.30
2023-04-18T11:11:57.731Z,12.20
2023-04-18T11:12:57.712Z,13.50
2023-04-18T11:13:57.710Z,13.80
2023-04-18T11:14:57.696Z,13.30
2023-04-18T11:15:57.681Z,13.50
2023-04-18T11:16:58.392Z,13.10
2023-04-18T11:17:57.770Z,12.70
2023-04-18T11:18:57.683Z,13.70
2023-04-18T11:19:57.719Z,11.20
2023-04-18T11:20:57.615Z,12.60
2023-04-18T11:21:57.625Z,13.80
2023-04-18T11:22:57.607Z,13.60
2023-04-18T11:23:57.600Z,14.40
2023-04-18T11:24:57.614Z,12.30
2023-04-18T11:25:57.549Z,12.00
2023-04-18T11:26:57.546Z,12.50
2023-04-18T11:27:57.554Z,14.10
2023-04-18T11:28:57.692Z,12.80
2023-04-18T11:29:57.543Z,13.70
2023-04-18T11:30:57.505Z,13.40
2023-04-18T11:31:58.560Z,14.50
2023-04-18T11:32:57.535Z,14.80
2023-04-18T11:33:57.477Z,14.80
2023-04-18T11:34:57.458Z,15.90
2023-04-18T11:35:57.441Z,13.40
2023-04-18T11:36:57.435Z,12.10
2023-04-18T11:37:57.410Z,10.90
2023-04-18T11:38:57.405Z,12.20
2023-04-18T11:39:57.384Z,12.20
2023-04-18T11:40:57.382Z,12.30
2023-04-18T11:41:57.380Z,11.10
2023-04-18T11:42:57.416Z,13.90
2023-04-18T11:43:57.337Z,12.80
2023-04-18T11:44:57.316Z,21.40
2023-04-18T11:45:57.385Z,19.20
2023-04-18T11:46:57.302Z,16.70
2023-04-18T11:47:57.364Z,12.00
2023-04-18T11:48:57.279Z,10.70
2023-04-18T11:49:57.432Z,13.30
2023-04-18T11:50:57.267Z,10.50
2023-04-18T11:51:57.248Z,11.40
2023-04-18T11:52:57.245Z,10.10
2023-04-18T11:53:57.211Z,9.60
2023-04-18T11:54:57.275Z,11.00
2023-04-18T11:55:57.223Z,10.60
2023-04-18T11:56:57.324Z,10.60
2023-04-18T11:57:57.169Z,10.40
2023-04-18T11:58:57.182Z,10.00
2023-04-18T11:59:57.144Z,10.20
2023-04-18T12:00:57.164Z,9.40
2023-04-18T12:01:58.915Z,10.10
2023-04-18T12:02:57.170Z,14.00
2023-04-18T12:03:57.264Z,10.40
2023-04-18T12:04:57.360Z,13.40
2023-04-18T12:05:57.103Z,11.90
2023-04-18T12:06:57.084Z,11.90
2023-04-18T12:07:57.055Z,11.10
2023-04-18T12:08:57.040Z,9.90
2023-04-18T12:09:57.053Z,10.30
2023-04-18T12:10:57.021Z,8.60
2023-04-18T12:11:57.006Z,10.40
2023-04-18T12:12:57.705Z,8.40
2023-04-18T12:13:56.967Z,11.10
2023-04-18T12:14:56.980Z,8.90
2023-04-18T12:15:56.971Z,8.90
2023-04-18T12:16:56.964Z,10.30
2023-04-18T12:17:56.941Z,11.90
2023-04-18T12:18:56.902Z,11.30
2023-04-18T12:19:56.935Z,8.90
2023-04-18T12:20:56.924Z,11.40
2023-04-18T12:21:56.896Z,8.70
2023-04-18T12:22:56.891Z,10.40
2023-04-18T12:23:56.895Z,10.00
2023-04-18T12:24:56.856Z,10.10
2023-04-18T12:25:56.829Z,8.80
2023-04-18T12:26:56.840Z,9.80
2023-04-18T12:27:56.816Z,9.90
2023-04-18T12:28:56.814Z,10.20
2023-04-18T12:29:56.769Z,9.50
2023-04-18T12:30:56.759Z,11.70
2023-04-18T12:31:56.988Z,11.60
2023-04-18T12:32:56.830Z,9.50
2023-04-18T12:33:56.726Z,11.80
2023-04-18T12:34:56.975Z,10.10
2023-04-18T12:35:56.703Z,10.20
2023-04-18T12:36:56.675Z,11.30
2023-04-18T12:37:56.741Z,10.40
2023-04-18T12:38:56.682Z,10.40
2023-04-18T12:39:56.686Z,10.30
2023-04-18T12:40:56.800Z,8.70
2023-04-18T12:41:56.624Z,9.40
2023-04-18T12:42:56.671Z,8.70
2023-04-18T12:43:56.599Z,10.40
2023-04-18T12:44:56.616Z,12.10
2023-04-18T12:45:56.662Z,9.90
2023-04-18T12:46:56.620Z,9.60
2023-04-18T12:47:56.629Z,10.30
2023-04-18T12:48:56.529Z,7.90
2023-04-18T12:49:56.526Z,9.20
2023-04-18T12:50:56.566Z,8.00
2023-04-18T12:51:57.278Z,9.30
2023-04-18T12:52:56.487Z,8.80
2023-04-18T12:53:56.557Z,9.10
2023-04-18T12:54:56.486Z,11.30